Star Flyer — 9HA2512 — position and weather

sailwx.info

Track history (hours):
 
Tides and Currents Weather Stations Pressure Air Temp Water Temp Dewpoint Dewpoint Depression Visibility Wind Speed Wind Dir Waves Ship Positions

Star Flyer

Last reported at 2019-Aug-24 19:52 UTC. Time now 2019-Aug-24 20:39 UTC.
Position N 37°34' E 023°46'.

Length 112 m; draft 5.8 m.

Type: Ship. MMSI: 248785000.

Date/timePositionNaut miles runAvg speedWind from/ knotsBaromVisibWave heightAir tempDewpointWater temp
2019-Aug-24 19:52N 37°34' E 023°46'2 5.1
2019-Aug-24 19:30N 37°35' E 023°45'2 5.0
2019-Aug-24 19:00N 37°38' E 023°44'4 7.8
2019-Aug-24 18:30N 37°41' E 023°42'4 8.4
2019-Aug-24 18:00N 37°45' E 023°40'4 8.5
2019-Aug-24 17:31N 37°49' E 023°37'4 8.7
2019-Aug-24 17:00N 37°53' E 023°37'3 6.9
2019-Aug-24 16:31N 37°56' E 023°38'0 0.2
2019-Aug-24 15:49N 37°56' E 023°38'0 0.0
2019-Aug-24 15:01N 37°56' E 023°38'0 0.0
2019-Aug-24 09:38N 37°56' E 023°38'0 0.0
2019-Aug-24 08:44N 37°56' E 023°38'0 0.0
2019-Aug-24 08:13N 37°56' E 023°38'0 0.0
2019-Aug-24 07:07N 37°56' E 023°38'0 0.0
2019-Aug-24 06:48N 37°56' E 023°38'0 0.0
2019-Aug-24 06:30N 37°56' E 023°38'0 0.0
2019-Aug-24 03:35N 37°56' E 023°38'0 0.0
2019-Aug-24 03:30N 37°56' E 023°38'2 3.6
2019-Aug-24 03:00N 37°55' E 023°36'2 4.2
2019-Aug-24 02:30N 37°53' E 023°37'3 6.9
2019-Aug-24 02:00N 37°50' E 023°39'4 7.1
2019-Aug-24 01:30N 37°47' E 023°41'3 6.6
2019-Aug-24 01:00N 37°44' E 023°43'3 6.8
2019-Aug-24 00:30N 37°41' E 023°45'3 6.5
2019-Aug-24 00:00N 37°38' E 023°43'4 6.9
2019-Aug-23 23:28N 37°35' E 023°41'19 6.8
2019-Aug-23 20:44N 37°22' E 023°23'1 3.0
2019-Aug-23 20:28N 37°23' E 023°24'4 3.8
2019-Aug-23 19:28N 37°24' E 023°28'4 4.8
2019-Aug-23 18:43N 37°26' E 023°32'5 4.1
2019-Aug-23 17:23N 37°31' E 023°33'1 3.1
2019-Aug-23 16:59N 37°32' E 023°32'2 3.1
2019-Aug-23 16:30N 37°33' E 023°31'3 5.1
2019-Aug-23 16:00N 37°34' E 023°28'3 5.3
2019-Aug-23 15:30N 37°32' E 023°25'2 3.2
2019-Aug-23 14:58N 37°31' E 023°26'0 0.0
2019-Aug-23 14:16N 37°31' E 023°26'0 0.1
2019-Aug-23 13:50N 37°31' E 023°26'0 0.0
2019-Aug-23 13:16N 37°31' E 023°26'0 0.1
2019-Aug-23 12:56N 37°31' E 023°26'0 0.1
2019-Aug-23 12:26N 37°31' E 023°26'0 0.0
2019-Aug-23 11:20N 37°31' E 023°26'0 0.1
2019-Aug-23 10:52N 37°31' E 023°26'0 0.0
2019-Aug-23 10:08N 37°31' E 023°26'0 0.1
2019-Aug-23 09:58N 37°31' E 023°26'0 0.0
2019-Aug-23 09:28N 37°31' E 023°26'0 0.1
2019-Aug-23 08:58N 37°31' E 023°26'0 0.4
2019-Aug-23 08:30N 37°31' E 023°26'3 5.1
2019-Aug-23 08:00N 37°33' E 023°27'4 8.9
2019-Aug-23 07:30N 37°34' E 023°32'4 7.1
2019-Aug-23 07:01N 37°34' E 023°37'4 7.8
2019-Aug-23 06:28N 37°34' E 023°42'4 8.0
2019-Aug-23 06:01N 37°35' E 023°47'7 8.0
2019-Aug-23 05:11N 37°35' E 023°55'  
2019-Aug-20 23:57N 39°34' E 024°08'4 9.1
2019-Aug-20 23:30N 39°36' E 024°13'28 5.9
2019-Aug-20 18:43N 39°47' E 024°46'5 5.1
2019-Aug-20 17:49N 39°49' E 024°52'0 1.5
2019-Aug-20 17:29N 39°50' E 024°52'5 3.1
2019-Aug-20 15:49N 39°51' E 024°59'  
2019-Aug-17 21:50N 37°38' E 023°52'3 9.5
2019-Aug-17 21:30N 37°39' E 023°48'4 8.9
2019-Aug-17 21:00N 37°40' E 023°43'5 9.2
2019-Aug-17 20:30N 37°44' E 023°40'5 9.3
2019-Aug-17 20:00N 37°48' E 023°38'5 9.2
2019-Aug-17 19:30N 37°53' E 023°37'3 6.9
2019-Aug-17 19:00N 37°56' E 023°38'0 0.4
2019-Aug-17 18:30N 37°56' E 023°38'0 0.0
2019-Aug-17 17:24N 37°56' E 023°38'0 0.0
2019-Aug-17 17:00N 37°56' E 023°38'0 0.0
2019-Aug-17 16:27N 37°56' E 023°38'0 0.0
2019-Aug-17 16:00N 37°56' E 023°38'0 0.0
2019-Aug-17 15:30N 37°56' E 023°38'0 0.0
2019-Aug-17 14:57N 37°56' E 023°38'0 0.0
2019-Aug-17 14:24N 37°56' E 023°38'0 0.0
2019-Aug-17 14:00N 37°56' E 023°38'0 0.0
2019-Aug-17 13:24N 37°56' E 023°38'0 0.0
2019-Aug-17 13:00N 37°56' E 023°38'0 0.0
2019-Aug-17 12:30N 37°56' E 023°38'0 0.0
2019-Aug-17 12:00N 37°56' E 023°38'0 0.0
2019-Aug-17 11:28N 37°56' E 023°38'0 0.0
2019-Aug-17 11:00N 37°56' E 023°38'0 0.0
2019-Aug-17 10:30N 37°56' E 023°38'0 0.0
2019-Aug-17 10:00N 37°56' E 023°38'0 0.0
2019-Aug-17 09:30N 37°56' E 023°38'0 0.0
2019-Aug-17 08:46N 37°56' E 023°38'0 0.0
2019-Aug-17 08:30N 37°56' E 023°38'0 0.0
2019-Aug-17 08:00N 37°56' E 023°38'0 0.0
2019-Aug-17 07:30N 37°56' E 023°38'0 0.0
2019-Aug-17 07:00N 37°56' E 023°38'0 0.0
2019-Aug-17 06:28N 37°56' E 023°38'0 0.0
2019-Aug-17 06:00N 37°56' E 023°38'0 0.0
2019-Aug-17 05:24N 37°56' E 023°38'0 0.0
2019-Aug-17 04:58N 37°56' E 023°38'0 0.0
2019-Aug-17 04:24N 37°56' E 023°38'0 0.0
2019-Aug-17 03:58N 37°56' E 023°38'0 0.0
2019-Aug-17 03:30N 37°56' E 023°38'2 3.7
2019-Aug-17 03:01N 37°55' E 023°36'3 6.1
2019-Aug-17 02:30N 37°52' E 023°38'3 6.2
2019-Aug-17 02:00N 37°50' E 023°39'3 6.6
2019-Aug-17 01:30N 37°47' E 023°41'3 6.8
2019-Aug-17 01:00N 37°44' E 023°43'4 7.1
2019-Aug-17 00:31N 37°40' E 023°45'6 6.9
2019-Aug-16 23:41N 37°35' E 023°45'1 7.0
2019-Aug-16 23:28N 37°33' E 023°45'9 6.4
2019-Aug-16 22:02N 37°26' E 023°37'6 6.9
2019-Aug-16 21:07N 37°23' E 023°30'0 2.4
2019-Aug-16 21:00N 37°23' E 023°30'2 0.5
2019-Aug-16 16:28N 37°21' E 023°28'0 0.0
2019-Aug-16 13:04N 37°21' E 023°28'0 0.0
2019-Aug-16 12:45N 37°21' E 023°28'0 0.0
2019-Aug-16 12:16N 37°21' E 023°28'0 0.0
2019-Aug-16 09:03N 37°21' E 023°28'0 2.2
2019-Aug-16 08:59N 37°21' E 023°28'3 4.5
2019-Aug-16 08:20N 37°24' E 023°28'1 1.4
2019-Aug-16 07:53N 37°25' E 023°28'0 1.1
2019-Aug-16 07:28N 37°25' E 023°29'0 0.8
2019-Aug-16 06:57N 37°25' E 023°29'2 5.1
2019-Aug-16 06:30N 37°25' E 023°32'7 8.5
2019-Aug-16 05:42N 37°22' E 023°40'2 8.6
2019-Aug-16 05:30N 37°21' E 023°42'  
Track history (hours):
 
Tides and Currents Weather Stations Pressure Air Temp Water Temp Dewpoint Dewpoint Depression Visibility Wind Speed Wind Dir Waves Ship Positions

Star Flyer

Last reported at 2019-Aug-24 19:52 UTC. Time now 2019-Aug-24 20:39 UTC.
Position N 37°34' E 023°46'.

Length 112 m; draft 5.8 m.

Type: Ship. MMSI: 248785000.

Date/timePositionNaut miles runAvg speedWind from/ knotsBaromVisibWave heightAir tempDewpointWater temp
2019-Aug-24 19:52N 37°34' E 023°46'2 5.1
2019-Aug-24 19:30N 37°35' E 023°45'2 5.0
2019-Aug-24 19:00N 37°38' E 023°44'4 7.8
2019-Aug-24 18:30N 37°41' E 023°42'4 8.4
2019-Aug-24 18:00N 37°45' E 023°40'4 8.5
2019-Aug-24 17:31N 37°49' E 023°37'4 8.7
2019-Aug-24 17:00N 37°53' E 023°37'3 6.9
2019-Aug-24 16:31N 37°56' E 023°38'0 0.2
2019-Aug-24 15:49N 37°56' E 023°38'0 0.0
2019-Aug-24 15:01N 37°56' E 023°38'0 0.0
2019-Aug-24 09:38N 37°56' E 023°38'0 0.0
2019-Aug-24 08:44N 37°56' E 023°38'0 0.0
2019-Aug-24 08:13N 37°56' E 023°38'0 0.0
2019-Aug-24 07:07N 37°56' E 023°38'0 0.0
2019-Aug-24 06:48N 37°56' E 023°38'0 0.0
2019-Aug-24 06:30N 37°56' E 023°38'0 0.0
2019-Aug-24 03:35N 37°56' E 023°38'0 0.0
2019-Aug-24 03:30N 37°56' E 023°38'2 3.6
2019-Aug-24 03:00N 37°55' E 023°36'2 4.2
2019-Aug-24 02:30N 37°53' E 023°37'3 6.9
2019-Aug-24 02:00N 37°50' E 023°39'4 7.1
2019-Aug-24 01:30N 37°47' E 023°41'3 6.6
2019-Aug-24 01:00N 37°44' E 023°43'3 6.8
2019-Aug-24 00:30N 37°41' E 023°45'3 6.5
2019-Aug-24 00:00N 37°38' E 023°43'4 6.9
2019-Aug-23 23:28N 37°35' E 023°41'19 6.8
2019-Aug-23 20:44N 37°22' E 023°23'1 3.0
2019-Aug-23 20:28N 37°23' E 023°24'4 3.8
2019-Aug-23 19:28N 37°24' E 023°28'4 4.8
2019-Aug-23 18:43N 37°26' E 023°32'5 4.1
2019-Aug-23 17:23N 37°31' E 023°33'1 3.1
2019-Aug-23 16:59N 37°32' E 023°32'2 3.1
2019-Aug-23 16:30N 37°33' E 023°31'3 5.1
2019-Aug-23 16:00N 37°34' E 023°28'3 5.3
2019-Aug-23 15:30N 37°32' E 023°25'2 3.2
2019-Aug-23 14:58N 37°31' E 023°26'0 0.0
2019-Aug-23 14:16N 37°31' E 023°26'0 0.1
2019-Aug-23 13:50N 37°31' E 023°26'0 0.0
2019-Aug-23 13:16N 37°31' E 023°26'0 0.1
2019-Aug-23 12:56N 37°31' E 023°26'0 0.1
2019-Aug-23 12:26N 37°31' E 023°26'0 0.0
2019-Aug-23 11:20N 37°31' E 023°26'0 0.1
2019-Aug-23 10:52N 37°31' E 023°26'0 0.0
2019-Aug-23 10:08N 37°31' E 023°26'0 0.1
2019-Aug-23 09:58N 37°31' E 023°26'0 0.0
2019-Aug-23 09:28N 37°31' E 023°26'0 0.1
2019-Aug-23 08:58N 37°31' E 023°26'0 0.4
2019-Aug-23 08:30N 37°31' E 023°26'3 5.1
2019-Aug-23 08:00N 37°33' E 023°27'4 8.9
2019-Aug-23 07:30N 37°34' E 023°32'4 7.1
2019-Aug-23 07:01N 37°34' E 023°37'4 7.8
2019-Aug-23 06:28N 37°34' E 023°42'4 8.0
2019-Aug-23 06:01N 37°35' E 023°47'7 8.0
2019-Aug-23 05:11N 37°35' E 023°55'  
2019-Aug-20 23:57N 39°34' E 024°08'4 9.1
2019-Aug-20 23:30N 39°36' E 024°13'28 5.9
2019-Aug-20 18:43N 39°47' E 024°46'5 5.1
2019-Aug-20 17:49N 39°49' E 024°52'0 1.5
2019-Aug-20 17:29N 39°50' E 024°52'5 3.1
2019-Aug-20 15:49N 39°51' E 024°59'  
2019-Aug-17 21:50N 37°38' E 023°52'3 9.5
2019-Aug-17 21:30N 37°39' E 023°48'4 8.9
2019-Aug-17 21:00N 37°40' E 023°43'5 9.2
2019-Aug-17 20:30N 37°44' E 023°40'5 9.3
2019-Aug-17 20:00N 37°48' E 023°38'5 9.2
2019-Aug-17 19:30N 37°53' E 023°37'3 6.9
2019-Aug-17 19:00N 37°56' E 023°38'0 0.4
2019-Aug-17 18:30N 37°56' E 023°38'0 0.0
2019-Aug-17 17:24N 37°56' E 023°38'0 0.0
2019-Aug-17 17:00N 37°56' E 023°38'0 0.0
2019-Aug-17 16:27N 37°56' E 023°38'0 0.0
2019-Aug-17 16:00N 37°56' E 023°38'0 0.0
2019-Aug-17 15:30N 37°56' E 023°38'0 0.0
2019-Aug-17 14:57N 37°56' E 023°38'0 0.0
2019-Aug-17 14:24N 37°56' E 023°38'0 0.0
2019-Aug-17 14:00N 37°56' E 023°38'0 0.0
2019-Aug-17 13:24N 37°56' E 023°38'0 0.0
2019-Aug-17 13:00N 37°56' E 023°38'0 0.0
2019-Aug-17 12:30N 37°56' E 023°38'0 0.0
2019-Aug-17 12:00N 37°56' E 023°38'0 0.0
2019-Aug-17 11:28N 37°56' E 023°38'0 0.0
2019-Aug-17 11:00N 37°56' E 023°38'0 0.0
2019-Aug-17 10:30N 37°56' E 023°38'0 0.0
2019-Aug-17 10:00N 37°56' E 023°38'0 0.0
2019-Aug-17 09:30N 37°56' E 023°38'0 0.0
2019-Aug-17 08:46N 37°56' E 023°38'0 0.0
2019-Aug-17 08:30N 37°56' E 023°38'0 0.0
2019-Aug-17 08:00N 37°56' E 023°38'0 0.0
2019-Aug-17 07:30N 37°56' E 023°38'0 0.0
2019-Aug-17 07:00N 37°56' E 023°38'0 0.0
2019-Aug-17 06:28N 37°56' E 023°38'0 0.0
2019-Aug-17 06:00N 37°56' E 023°38'0 0.0
2019-Aug-17 05:24N 37°56' E 023°38'0 0.0
2019-Aug-17 04:58N 37°56' E 023°38'0 0.0
2019-Aug-17 04:24N 37°56' E 023°38'0 0.0
2019-Aug-17 03:58N 37°56' E 023°38'0 0.0
2019-Aug-17 03:30N 37°56' E 023°38'2 3.7
2019-Aug-17 03:01N 37°55' E 023°36'3 6.1
2019-Aug-17 02:30N 37°52' E 023°38'3 6.2
2019-Aug-17 02:00N 37°50' E 023°39'3 6.6
2019-Aug-17 01:30N 37°47' E 023°41'3 6.8
2019-Aug-17 01:00N 37°44' E 023°43'4 7.1
2019-Aug-17 00:31N 37°40' E 023°45'6 6.9
2019-Aug-16 23:41N 37°35' E 023°45'1 7.0
2019-Aug-16 23:28N 37°33' E 023°45'9 6.4
2019-Aug-16 22:02N 37°26' E 023°37'6 6.9
2019-Aug-16 21:07N 37°23' E 023°30'0 2.4
2019-Aug-16 21:00N 37°23' E 023°30'2 0.5
2019-Aug-16 16:28N 37°21' E 023°28'0 0.0
2019-Aug-16 13:04N 37°21' E 023°28'0 0.0
2019-Aug-16 12:45N 37°21' E 023°28'0 0.0
2019-Aug-16 12:16N 37°21' E 023°28'0 0.0
2019-Aug-16 09:03N 37°21' E 023°28'0 2.2
2019-Aug-16 08:59N 37°21' E 023°28'3 4.5
2019-Aug-16 08:20N 37°24' E 023°28'1 1.4
2019-Aug-16 07:53N 37°25' E 023°28'0 1.1
2019-Aug-16 07:28N 37°25' E 023°29'0 0.8
2019-Aug-16 06:57N 37°25' E 023°29'2 5.1
2019-Aug-16 06:30N 37°25' E 023°32'7 8.5
2019-Aug-16 05:42N 37°22' E 023°40'2 8.6
2019-Aug-16 05:30N 37°21' E 023°42'  

Dump ship's entire track history